Time;durP1;ratioP1;P1;durP2;ratioP2;P2;SDS_P1;SDS_P2;PMS_P1;PMS_P2;Temp;Humidity;BMP_temperature;BMP_pressure;BME280_temperature;BME280_humidity;BME280_pressure;Samples;Min_cycle;Max_cycle;Signal;HPM_P1;HPM_P2
2023/01/23 00:01:28;;;;;;;13.15;5.38;;;3.40;99.90;;;;;;5073703;28;20048;-70
2023/01/23 00:03:54;;;;;;;13.75;5.20;;;;;;;;;;5073582;28;20070;-69
2023/01/23 00:06:20;;;;;;;16.45;5.32;;;3.40;99.90;;;;;;5073248;28;20052;-71
2023/01/23 00:08:47;;;;;;;20.05;5.28;;;;;;;;;;5073261;28;20087;-70
2023/01/23 00:11:14;;;;;;;12.13;5.93;;;;;;;;;;5073223;28;20080;-70
2023/01/23 00:13:40;;;;;;;16.48;9.80;;;3.20;99.90;;;;;;5073021;28;20052;-70
2023/01/23 00:16:15;;;;;;;18.33;9.57;;;3.60;99.90;;;;;;5075085;28;20127;-70
2023/01/23 00:18:41;;;;;;;19.25;8.57;;;;;;;;;;5077689;28;20149;-70
2023/01/23 00:21:11;;;;;;;;;;;3.50;99.90;;;;;;5078183;28;20044;-70
2023/01/23 00:23:40;;;;;;;17.48;8.13;;;3.30;99.90;;;;;;5077198;28;19927;-70
2023/01/23 00:26:07;;;;;;;20.80;8.18;;;;;;;;;;5078202;28;20101;-70
2023/01/23 00:28:34;;;;;;;13.75;7.05;;;3.20;99.90;;;;;;5077862;28;20396;-70
2023/01/23 00:31:00;;;;;;;;;;;;;;;;;;5075014;28;20135;-70
2023/01/23 00:33:26;;;;;;;19.98;7.05;;;;;;;;;;5072585;28;20015;-70
2023/01/23 00:35:54;;;;;;;21.58;9.07;;;3.40;99.90;;;;;;5072550;28;20067;-70
2023/01/23 00:38:19;;;;;;;17.38;8.98;;;2.90;99.90;;;;;;5072761;28;20052;-70
2023/01/23 00:40:45;;;;;;;18.08;8.18;;;;;;;;;;5072612;28;20382;-70
2023/01/23 00:43:11;;;;;;;15.98;6.20;;;3.10;99.90;;;;;;5072526;28;20139;-70
2023/01/23 00:45:37;;;;;;;17.00;7.82;;;3.20;99.90;;;;;;5071361;28;20135;-71
2023/01/23 00:48:03;;;;;;;18.75;6.97;;;;;;;;;;5072474;28;20444;-70
2023/01/23 00:50:29;;;;;;;18.95;7.47;;;3.10;99.90;;;;;;5072390;28;20059;-70
2023/01/23 00:52:54;;;;;;;16.58;7.07;;;3.30;99.90;;;;;;5071273;28;20048;-70
2023/01/23 00:55:20;;;;;;;14.13;7.07;;;;;;;;;;5072571;28;20467;-70
2023/01/23 00:57:46;;;;;;;16.02;6.68;;;3.10;99.90;;;;;;5072266;28;20131;-69
2023/01/23 01:00:12;;;;;;;15.63;6.43;;;;;;;;;;5071910;28;20131;-70
2023/01/23 01:02:38;;;;;;;15.30;7.30;;;3.10;99.90;;;;;;5072235;28;20125;-70
2023/01/23 01:05:04;;;;;;;12.02;6.10;;;;;;;;;;5071211;28;20472;-70
2023/01/23 01:07:30;;;;;;;15.32;6.20;;;;;;;;;;5072209;28;20045;-70
2023/01/23 01:09:56;;;;;;;11.65;5.63;;;3.00;99.90;;;;;;5071751;28;20135;-69
2023/01/23 01:12:21;;;;;;;15.43;5.85;;;3.10;99.90;;;;;;5071014;28;20127;-70
2023/01/23 01:14:47;;;;;;;16.17;5.82;;;3.30;99.90;;;;;;5071740;28;20051;-70
2023/01/23 01:17:13;;;;;;;12.55;5.30;;;;;;;;;;5072080;28;20045;-70
2023/01/23 01:19:39;;;;;;;12.68;5.82;;;;;;;;;;5071978;28;20070;-70
2023/01/23 01:22:05;;;;;;;13.88;5.30;;;3.40;99.90;;;;;;5070999;28;20048;-70
2023/01/23 01:24:31;;;;;;;17.40;5.32;;;3.30;99.90;;;;;;5071977;28;20041;-70
2023/01/23 01:26:56;;;;;;;12.00;5.53;;;3.20;99.90;;;;;;5071997;28;20044;-70
2023/01/23 01:29:22;;;;;;;12.77;5.43;;;3.20;99.90;;;;;;5070889;28;20045;-70
2023/01/23 01:31:48;;;;;;;11.48;5.20;;;3.20;99.90;;;;;;5071972;28;20054;-70
2023/01/23 01:34:14;;;;;;;8.88;4.80;;;;;;;;;;5072085;28;20040;-70
2023/01/23 01:36:39;;;;;;;12.57;5.30;;;2.80;99.90;;;;;;5071775;28;20147;-71
2023/01/23 01:39:05;;;;;;;13.70;5.50;;;3.00;99.90;;;;;;5070763;28;20140;-70
2023/01/23 01:41:31;;;;;;;15.38;5.40;;;3.30;99.90;;;;;;5071804;28;20052;-70
2023/01/23 01:43:58;;;;;;;12.68;5.35;;;2.90;99.90;;;;;;5071797;28;20041;-70
2023/01/23 01:46:29;;;;;;;12.65;5.00;;;3.20;99.90;;;;;;5070546;28;20049;-70
2023/01/23 01:49:05;;;;;;;10.38;5.38;;;3.00;99.90;;;;;;5071811;28;20048;-69
2023/01/23 01:51:54;;;;;;;14.00;5.17;;;3.40;99.90;;;;;;5071960;28;20114;-70
2023/01/23 01:54:35;;;;;;;11.48;5.50;;;2.90;99.90;;;;;;5064485;28;20881;-69
2023/01/23 01:57:07;;;;;;;13.98;5.63;;;;;;;;;;5071786;28;20048;-70
2023/01/23 02:00:05;;;;;;;12.45;5.70;;;2.90;99.90;;;;;;5071679;28;20048;-69
2023/01/23 02:02:52;;;;;;;13.90;5.25;;;;;;;;;;5067928;28;20118;-70
2023/01/23 02:05:28;;;;;;;11.68;5.72;;;3.30;99.90;;;;;;5070296;28;20362;-70
2023/01/23 02:08:02;;;;;;;10.93;5.20;;;3.10;99.90;;;;;;5071618;28;20052;-70
2023/01/23 02:10:28;;;;;;;8.93;4.55;;;;;;;;;;5071553;28;20059;-70
2023/01/23 02:12:54;;;;;;;11.73;4.78;;;3.10;99.90;;;;;;5071144;28;20473;-70
2023/01/23 02:15:21;;;;;;;11.77;4.93;;;3.20;99.90;;;;;;5071511;28;20040;-69
2023/01/23 02:17:50;;;;;;;10.15;4.90;;;3.00;99.90;;;;;;5071408;28;20552;-71
2023/01/23 02:20:24;;;;;;;12.45;5.03;;;;;;;;;;5071416;28;20052;-71
2023/01/23 02:23:12;;;;;;;12.95;5.45;;;3.00;99.90;;;;;;5074068;28;20040;-70
2023/01/23 02:25:38;;;;;;;;;;;;;;;;;;5074338;28;20059;-71
2023/01/23 02:28:04;;;;;;;15.85;5.75;;;;;;;;;;5075110;28;19920;-69
2023/01/23 02:30:30;;;;;;;10.13;5.22;;;;;;;;;;5075032;28;20048;-70
2023/01/23 02:33:31;;;;;;;11.00;4.97;;;;;;;;;;5074925;28;20449;-70
2023/01/23 02:35:58;;;;;;;13.00;4.47;;;3.10;99.90;;;;;;5074693;28;20489;-70
2023/01/23 02:38:28;;;;;;;13.00;5.57;;;3.30;99.90;;;;;;5074900;28;20098;-70
2023/01/23 02:40:56;;;;;;;10.55;4.53;;;3.10;99.90;;;;;;5073838;28;20052;-69
2023/01/23 02:43:27;;;;;;;12.60;4.97;;;3.20;99.90;;;;;;5074778;28;20473;-70
2023/01/23 02:45:53;;;;;;;11.93;4.70;;;;;;;;;;5074850;28;20139;-70
2023/01/23 02:48:21;;;;;;;11.07;4.80;;;3.10;99.90;;;;;;5074765;28;20125;-70
2023/01/23 02:50:46;;;;;;;9.25;4.45;;;3.10;99.90;;;;;;5074694;28;20059;-70
2023/01/23 02:53:15;;;;;;;10.77;4.38;;;2.90;99.90;;;;;;5073146;28;20037;-70
2023/01/23 02:55:42;;;;;;;7.45;4.43;;;3.10;99.90;;;;;;5074587;28;20048;-69
2023/01/23 03:00:52;;;;;;;8.27;4.20;;;3.10;99.90;;;;;;5074292;28;20411;-70
2023/01/23 03:03:18;;;;;;;11.00;4.10;;;;;;;;;;5074489;28;20119;-70
2023/01/23 03:05:46;;;;;;;9.70;4.78;;;3.10;99.90;;;;;;5074412;28;20110;-70
2023/01/23 03:08:11;;;;;;;11.63;4.45;;;2.90;99.90;;;;;;5074423;28;20048;-71
2023/01/23 03:10:37;;;;;;;12.75;3.80;;;;;;;;;;5074422;28;20389;-70
2023/01/23 03:13:06;;;;;;;10.98;4.10;;;3.20;99.90;;;;;;5074351;28;20044;-70
2023/01/23 03:15:32;;;;;;;7.57;3.90;;;;;;;;;;5073242;28;20052;-70
2023/01/23 03:17:58;;;;;;;9.18;3.88;;;3.10;99.90;;;;;;5074278;28;20056;-70
2023/01/23 03:20:25;;;;;;;12.63;4.20;;;3.20;99.90;;;;;;5073106;28;20052;-70
2023/01/23 03:22:52;;;;;;;11.43;4.22;;;3.10;99.90;;;;;;5074187;28;20484;-70
2023/01/23 03:25:18;;;;;;;12.77;4.10;;;3.20;99.90;;;;;;5074121;28;20049;-70
2023/01/23 03:27:44;;;;;;;9.60;3.67;;;;;;;;;;5074124;28;20414;-70
2023/01/23 03:30:12;;;;;;;12.73;4.25;;;3.00;99.90;;;;;;5074113;28;20409;-69
2023/01/23 03:32:38;;;;;;;10.38;4.50;;;3.00;99.90;;;;;;5073600;28;20396;-70
2023/01/23 03:35:05;;;;;;;;;;;3.20;99.90;;;;;;5074369;28;20457;-69
2023/01/23 03:37:30;;;;;;;10.52;3.72;;;2.90;99.90;;;;;;5073984;28;19920;-70
2023/01/23 03:42:41;;;;;;;10.13;4.22;;;;;;;;;;5073782;28;20049;-70
2023/01/23 03:45:07;;;;;;;11.10;4.40;;;;;;;;;;5073795;28;20209;-70
2023/01/23 03:47:33;;;;;;;10.00;4.40;;;3.30;99.90;;;;;;5072487;28;20408;-70
2023/01/23 03:49:59;;;;;;;11.65;4.43;;;;;;;;;;5073915;28;20048;-69
2023/01/23 03:52:24;;;;;;;10.15;4.15;;;3.10;99.90;;;;;;5073691;28;20563;-69
2023/01/23 03:54:51;;;;;;;11.68;4.55;;;;;;;;;;5073489;28;20079;-69
2023/01/23 03:57:17;;;;;;;9.32;4.82;;;2.80;99.90;;;;;;5073517;28;20401;-70
2023/01/23 03:59:42;;;;;;;10.68;4.60;;;3.10;99.90;;;;;;5072475;28;20052;-70
2023/01/23 04:02:08;;;;;;;10.25;4.22;;;2.80;99.90;;;;;;5073445;28;20045;-70
2023/01/23 04:04:34;;;;;;;8.52;4.18;;;2.70;99.90;;;;;;5073347;28;20047;-70
2023/01/23 04:07:01;;;;;;;9.57;4.18;;;;;;;;;;5073338;28;20063;-70
2023/01/23 04:09:27;;;;;;;11.05;4.60;;;;;;;;;;5073222;28;20102;-70
2023/01/23 04:11:54;;;;;;;10.60;4.80;;;;;;;;;;5073134;28;20125;-70
2023/01/23 04:14:20;;;;;;;10.73;4.38;;;;;;;;;;5072983;28;20064;-70
2023/01/23 04:16:46;;;;;;;10.10;4.55;;;2.90;99.90;;;;;;5072959;28;20056;-71
2023/01/23 04:19:12;;;;;;;11.30;4.60;;;;;;;;;;5072979;28;20052;-70
2023/01/23 04:21:38;;;;;;;11.93;4.70;;;;;;;;;;5072981;28;20049;-70
2023/01/23 04:24:04;;;;;;;11.68;4.38;;;;;;;;;;5072924;28;20084;-70
2023/01/23 04:26:33;;;;;;;11.32;4.70;;;;;;;;;;5072474;28;20504;-70
2023/01/23 04:28:58;;;;;;;10.32;3.97;;;2.70;99.90;;;;;;5072837;28;20089;-70
2023/01/23 04:31:24;;;;;;;10.18;4.97;;;3.10;99.90;;;;;;5072832;28;20233;-71
2023/01/23 04:33:50;;;;;;;15.02;4.55;;;;;;;;;;5071457;28;20052;-70
2023/01/23 04:36:16;;;;;;;12.32;4.85;;;3.00;99.90;;;;;;5072494;28;20060;-70
2023/01/23 04:38:42;;;;;;;12.68;5.03;;;2.70;99.90;;;;;;5072642;28;20097;-70
2023/01/23 04:41:09;;;;;;;10.55;5.15;;;;;;;;;;5072590;28;20070;-70
2023/01/23 04:43:35;;;;;;;16.13;4.90;;;;;;;;;;5071400;28;20135;-70
2023/01/23 04:46:01;;;;;;;13.57;5.38;;;2.70;99.90;;;;;;5071999;28;20086;-71
2023/01/23 04:48:27;;;;;;;8.25;5.05;;;;;;;;;;5072495;28;20060;-70
2023/01/23 04:50:52;;;;;;;10.43;4.68;;;3.20;99.90;;;;;;5071171;28;20059;-70
2023/01/23 04:53:18;;;;;;;15.43;4.95;;;;;;;;;;5072439;28;20040;-70
2023/01/23 04:55:48;;;;;;;10.40;4.65;;;3.10;99.90;;;;;;5072358;28;20127;-70
2023/01/23 04:58:14;;;;;;;8.77;4.82;;;;;;;;;;5054747;28;20056;-70
2023/01/23 05:00:40;;;;;;;;;;;3.20;99.90;;;;;;5072743;28;20067;-70
2023/01/23 05:03:05;;;;;;;12.15;4.57;;;2.80;99.90;;;;;;5071178;28;19925;-70
2023/01/23 05:05:32;;;;;;;9.55;5.22;;;2.90;99.90;;;;;;5072259;28;20048;-71
2023/01/23 05:07:57;;;;;;;;;;;3.40;99.90;;;;;;5072642;28;20049;-70
2023/01/23 05:10:23;;;;;;;11.05;5.18;;;2.90;99.90;;;;;;5072156;28;19977;-70
2023/01/23 05:12:49;;;;;;;14.45;5.07;;;2.90;99.90;;;;;;5072188;28;20040;-70
2023/01/23 05:15:16;;;;;;;10.35;5.07;;;3.10;99.90;;;;;;5072183;28;20390;-70
2023/01/23 05:17:42;;;;;;;9.02;4.72;;;3.10;99.90;;;;;;5072172;28;20105;-70
2023/01/23 05:20:08;;;;;;;10.82;5.10;;;2.90;99.90;;;;;;5072088;28;20139;-70
2023/01/23 05:22:34;;;;;;;12.23;5.90;;;2.80;99.90;;;;;;5072033;28;20044;-70
2023/01/23 05:25:00;;;;;;;9.90;5.40;;;3.20;99.90;;;;;;5072032;28;20055;-70
2023/01/23 05:27:26;;;;;;;12.43;5.75;;;;;;;;;;5070695;28;20044;-69
2023/01/23 05:29:52;;;;;;;15.65;5.85;;;3.00;99.90;;;;;;5071986;28;20500;-70
2023/01/23 05:32:17;;;;;;;12.82;5.57;;;2.80;99.90;;;;;;5071947;28;20063;-70
2023/01/23 05:34:43;;;;;;;13.10;5.90;;;3.20;99.90;;;;;;5071910;28;20041;-71
2023/01/23 05:37:10;;;;;;;12.93;5.65;;;;;;;;;;5071976;28;20060;-70
2023/01/23 05:39:36;;;;;;;8.55;5.55;;;;;;;;;;5071925;28;20127;-70
2023/01/23 05:42:01;;;;;;;12.43;6.20;;;3.30;99.90;;;;;;5070890;28;20048;-70
2023/01/23 05:44:27;;;;;;;10.00;6.00;;;2.90;99.90;;;;;;5070346;28;20052;-70
2023/01/23 05:46:53;;;;;;;14.27;6.53;;;;;;;;;;5071994;28;20092;-70
2023/01/23 05:49:19;;;;;;;14.27;6.63;;;2.90;99.90;;;;;;5070579;28;20405;-70
2023/01/23 05:51:45;;;;;;;11.20;6.00;;;;;;;;;;5072259;28;20049;-70
2023/01/23 05:54:11;;;;;;;16.63;6.90;;;3.10;99.90;;;;;;5071726;28;20045;-70
2023/01/23 05:56:36;;;;;;;13.68;7.07;;;3.20;99.90;;;;;;5074251;28;20131;-71
2023/01/23 05:59:04;;;;;;;13.13;7.07;;;2.80;99.90;;;;;;5075833;28;20131;-70
2023/01/23 06:01:29;;;;;;;12.60;6.78;;;3.10;99.90;;;;;;5075639;28;20052;-70
2023/01/23 06:03:55;;;;;;;16.38;6.57;;;3.10;99.90;;;;;;5075748;28;20123;-70
2023/01/23 06:06:21;;;;;;;17.63;7.50;;;2.90;99.90;;;;;;5075614;28;20080;-70
2023/01/23 06:08:46;;;;;;;16.98;7.13;;;2.90;99.90;;;;;;5075541;28;20083;-70
2023/01/23 06:11:12;;;;;;;11.35;6.35;;;3.10;99.90;;;;;;5074565;28;20051;-70
2023/01/23 06:13:38;;;;;;;18.15;7.35;;;;;;;;;;5075187;28;20040;-70
2023/01/23 06:16:04;;;;;;;12.52;6.65;;;3.20;99.90;;;;;;5057736;28;20098;-70
2023/01/23 06:18:30;;;;;;;17.88;7.72;;;3.00;99.90;;;;;;5075311;28;20052;-71
2023/01/23 06:21:00;;;;;;;14.55;7.15;;;3.30;99.90;;;;;;5075384;28;20052;-71
2023/01/23 06:23:26;;;;;;;14.70;7.72;;;;;;;;;;5075298;28;20097;-70
2023/01/23 06:25:52;;;;;;;16.50;7.22;;;2.80;99.90;;;;;;5075250;28;20389;-70
2023/01/23 06:28:18;;;;;;;14.55;7.30;;;3.30;99.90;;;;;;5074928;28;20070;-69
2023/01/23 06:30:43;;;;;;;15.65;7.65;;;3.00;99.90;;;;;;5075114;28;20048;-70
2023/01/23 06:33:09;;;;;;;10.63;7.22;;;;;;;;;;5074980;28;20079;-70
2023/01/23 06:35:35;;;;;;;16.10;7.45;;;3.30;99.90;;;;;;5073560;28;20397;-70
2023/01/23 06:38:01;;;;;;;16.42;7.85;;;3.10;99.90;;;;;;5074050;28;20065;-71
2023/01/23 06:40:27;;;;;;;13.98;7.38;;;;;;;;;;5075027;28;20059;-71
2023/01/23 06:42:56;;;;;;;16.80;7.65;;;3.20;99.90;;;;;;5073682;28;20392;-70
2023/01/23 06:45:22;;;;;;;17.05;7.22;;;3.10;99.90;;;;;;5074934;28;20064;-70
2023/01/23 06:47:48;;;;;;;17.65;8.38;;;;;;;;;;5074896;28;20048;-70
2023/01/23 06:50:14;;;;;;;19.83;8.10;;;;;;;;;;5074788;28;20341;-70
2023/01/23 06:52:39;;;;;;;19.35;8.25;;;2.90;99.90;;;;;;5074743;28;20063;-71
2023/01/23 06:55:05;;;;;;;20.13;8.55;;;2.90;99.90;;;;;;5073710;28;20048;-71
2023/01/23 07:03:41;;;;;;;18.98;8.10;;;;;;;;;;5109749;27;20399;-70
2023/01/23 07:06:07;;;;;;;16.00;7.78;;;;;;;;;;5109764;28;20059;-70
2023/01/23 07:08:34;;;;;;;16.17;8.73;;;;;;;;;;5109876;28;20051;-71
2023/01/23 07:11:00;;;;;;;15.30;8.48;;;;;;;;;;5109680;28;20098;-70
2023/01/23 07:13:26;;;;;;;21.23;8.75;;;2.60;99.90;;;;;;5109751;28;20048;-70
2023/01/23 07:15:53;;;;;;;22.45;8.95;;;;;;;;;;5109701;28;20385;-70
2023/01/23 07:18:18;;;;;;;16.20;8.57;;;2.70;99.90;;;;;;5109589;28;20104;-70
2023/01/23 07:20:45;;;;;;;15.50;8.85;;;;;;;;;;5109560;28;20073;-70
2023/01/23 07:23:10;;;;;;;;;;;3.00;99.90;;;;;;5109894;28;20126;-70
2023/01/23 07:25:36;;;;;;;19.27;8.45;;;2.70;99.90;;;;;;5109189;28;20035;-70
2023/01/23 07:28:02;;;;;;;16.55;8.60;;;2.90;99.90;;;;;;5109718;28;20055;-70
2023/01/23 07:30:28;;;;;;;15.15;8.82;;;;;;;;;;5109281;28;20472;-70
2023/01/23 07:32:54;;;;;;;14.90;9.27;;;3.00;99.90;;;;;;5108129;28;20040;-70
2023/01/23 07:35:21;;;;;;;17.10;9.25;;;3.10;99.90;;;;;;5109338;28;20050;-71
2023/01/23 07:37:46;;;;;;;17.30;9.18;;;2.90;99.90;;;;;;5108340;28;20050;-70
2023/01/23 07:40:12;;;;;;;15.20;8.77;;;2.80;99.90;;;;;;5109330;28;20479;-70
2023/01/23 07:42:40;;;;;;;16.05;8.32;;;2.80;99.90;;;;;;5109320;28;20429;-70
2023/01/23 07:45:07;;;;;;;15.63;9.45;;;2.80;99.90;;;;;;5109433;28;20090;-71
2023/01/23 07:47:33;;;;;;;18.63;8.70;;;3.10;99.90;;;;;;5109043;28;20453;-70
2023/01/23 07:49:59;;;;;;;13.57;7.15;;;3.20;99.90;;;;;;5109061;28;20058;-70
2023/01/23 07:52:25;;;;;;;15.85;7.38;;;;;;;;;;5107895;28;20476;-70
2023/01/23 07:54:51;;;;;;;19.25;7.93;;;;;;;;;;5108580;28;20488;-71
2023/01/23 07:57:17;;;;;;;16.02;7.80;;;2.90;99.90;;;;;;5108862;28;20448;-70
2023/01/23 07:59:42;;;;;;;13.82;8.15;;;3.20;99.90;;;;;;5107739;28;20063;-70
2023/01/23 08:02:11;;;;;;;14.50;7.90;;;;;;;;;;5108343;28;20064;-70
2023/01/23 08:04:37;;;;;;;13.55;7.22;;;3.30;99.90;;;;;;5108604;28;20083;-70
2023/01/23 08:07:03;;;;;;;14.52;7.50;;;;;;;;;;5108964;28;20109;-70
2023/01/23 08:09:29;;;;;;;14.00;7.53;;;;;;;;;;5108668;28;20047;-70
2023/01/23 08:11:55;;;;;;;17.25;7.90;;;;;;;;;;5107319;28;20087;-70
2023/01/23 08:14:21;;;;;;;14.82;7.20;;;3.30;99.90;;;;;;5098847;28;20481;-70
2023/01/23 08:16:51;;;;;;;12.93;6.78;;;3.00;99.90;;;;;;5093919;28;20051;-71
2023/01/23 08:19:17;;;;;;;11.23;6.68;;;;;;;;;;5094910;28;20047;-70
2023/01/23 08:21:43;;;;;;;11.45;7.25;;;3.10;99.90;;;;;;5094824;28;20058;-70
2023/01/23 08:24:11;;;;;;;12.75;6.55;;;;;;;;;;5094561;28;20055;-70
2023/01/23 08:26:36;;;;;;;11.32;6.22;;;3.20;99.90;;;;;;5094289;28;20087;-70
2023/01/23 08:29:03;;;;;;;12.27;6.55;;;3.10;99.90;;;;;;5093496;28;20092;-71
2023/01/23 08:31:29;;;;;;;16.23;6.60;;;3.20;99.90;;;;;;5094705;28;20044;-70
2023/01/23 08:33:55;;;;;;;12.45;6.30;;;;;;;;;;5094122;28;20093;-71
2023/01/23 08:36:21;;;;;;;;;;;3.00;99.90;;;;;;5089808;28;20113;-71
2023/01/23 08:38:47;;;;;;;12.00;6.07;;;3.30;99.90;;;;;;5089836;28;20371;-70
2023/01/23 08:41:13;;;;;;;10.40;6.30;;;3.40;99.90;;;;;;5092668;28;20059;-70
2023/01/23 08:43:40;;;;;;;15.93;6.50;;;3.10;99.90;;;;;;5091557;28;20515;-70
2023/01/23 08:46:07;;;;;;;10.82;6.45;;;;;;;;;;5093705;28;20062;-71
2023/01/23 08:48:34;;;;;;;12.73;6.50;;;3.10;99.90;;;;;;5088199;28;20055;-70
2023/01/23 08:51:05;;;;;;;8.73;6.30;;;3.20;99.90;;;;;;5089399;28;20049;-70
2023/01/23 08:53:32;;;;;;;13.20;6.35;;;3.50;99.90;;;;;;5092047;28;20051;-71
2023/01/23 08:56:03;;;;;;;8.23;5.90;;;3.40;99.90;;;;;;5093619;28;20052;-71
2023/01/23 08:58:29;;;;;;;7.60;5.53;;;3.30;99.90;;;;;;5093514;28;20060;-71
2023/01/23 09:00:55;;;;;;;9.18;5.53;;;3.50;99.90;;;;;;5112447;28;20522;-72
2023/01/23 09:03:21;;;;;;;9.77;5.30;;;;;;;;;;5113245;28;20152;-72
2023/01/23 09:05:47;;;;;;;9.60;5.30;;;3.50;99.90;;;;;;5113094;28;20167;-71
2023/01/23 09:08:13;;;;;;;9.93;5.45;;;3.60;99.90;;;;;;5113780;28;20199;-70
2023/01/23 09:10:38;;;;;;;7.75;4.88;;;3.20;99.90;;;;;;5113948;27;20432;-71
2023/01/23 09:13:04;;;;;;;5.90;4.82;;;3.80;99.90;;;;;;5115465;28;20039;-71
2023/01/23 09:15:30;;;;;;;7.78;4.55;;;3.40;99.90;;;;;;5116685;28;20083;-72
2023/01/23 09:17:56;;;;;;;7.57;4.88;;;3.40;99.90;;;;;;5118504;28;20051;-72
2023/01/23 09:20:24;;;;;;;6.03;4.60;;;3.30;99.90;;;;;;5116906;28;20104;-71
2023/01/23 09:22:51;;;;;;;7.60;4.65;;;;;;;;;;5118424;28;20039;-70
2023/01/23 09:25:16;;;;;;;;;;;3.40;99.90;;;;;;5118058;28;20104;-72
2023/01/23 09:27:42;;;;;;;7.10;3.70;;;3.60;99.90;;;;;;5117071;28;19923;-71
2023/01/23 09:30:08;;;;;;;4.75;3.78;;;3.50;99.90;;;;;;5114389;28;20134;-71
2023/01/23 09:32:34;;;;;;;;;;;3.60;99.90;;;;;;5113532;28;20036;-71
2023/01/23 09:35:00;;;;;;;5.22;3.70;;;;;;;;;;5112343;28;19920;-73
2023/01/23 09:37:28;;;;;;;5.35;4.10;;;3.70;99.90;;;;;;5094121;28;20040;-73
2023/01/23 09:39:54;;;;;;;3.88;3.00;;;;;;;;;;5089847;28;20059;-70
2023/01/23 09:42:28;;;;;;;3.33;2.45;;;3.40;99.90;;;;;;5091987;28;20127;-71
2023/01/23 09:45:02;;;;;;;2.90;2.45;;;3.60;99.90;;;;;;5113229;28;20129;-71
2023/01/23 09:47:45;;;;;;;4.30;2.60;;;;;;;;;;5109733;28;20494;-72
2023/01/23 09:50:21;;;;;;;4.53;2.65;;;3.80;99.90;;;;;;5092718;28;20044;-71
2023/01/23 09:52:53;;;;;;;4.28;2.78;;;;;;;;;;5092415;28;20090;-71
2023/01/23 09:56:00;;;;;;;3.72;2.90;;;4.00;99.90;;;;;;5088681;28;20044;-69
2023/01/23 09:58:57;;;;;;;4.72;3.97;;;3.70;99.90;;;;;;5092658;28;20116;-71
2023/01/23 10:01:25;;;;;;;6.45;3.85;;;3.70;99.90;;;;;;5084490;28;20157;-72
2023/01/23 10:03:51;;;;;;;5.50;4.32;;;4.00;99.90;;;;;;5092689;28;20117;-70
2023/01/23 10:06:23;;;;;;;6.22;4.38;;;3.80;99.90;;;;;;5092516;28;20044;-73
2023/01/23 10:09:21;;;;;;;7.68;4.60;;;3.90;99.90;;;;;;5102666;28;20044;-72
2023/01/23 10:11:55;;;;;;;8.32;4.75;;;;;;;;;;5093699;28;20052;-70
2023/01/23 10:14:27;;;;;;;9.15;4.78;;;;;;;;;;5092528;28;20055;-71
2023/01/23 10:16:59;;;;;;;8.02;4.90;;;4.00;99.90;;;;;;5092113;28;20134;-70
2023/01/23 10:19:46;;;;;;;6.65;3.88;;;4.00;99.90;;;;;;5089023;28;20046;-70
2023/01/23 10:22:32;;;;;;;;;;;3.90;99.90;;;;;;5090264;28;20476;-72
2023/01/23 10:25:00;;;;;;;8.32;3.90;;;4.00;99.90;;;;;;5090367;28;19920;-71
2023/01/23 10:27:42;;;;;;;6.55;4.07;;;3.70;99.90;;;;;;5091040;28;20062;-70
2023/01/23 10:30:10;;;;;;;7.07;4.45;;;4.10;99.90;;;;;;5071840;28;20063;-72
2023/01/23 10:33:11;;;;;;;11.20;5.43;;;4.30;99.90;;;;;;5072126;28;20047;-71
2023/01/23 10:35:46;;;;;;;9.18;5.47;;;;;;;;;;5050362;28;20603;-72
2023/01/23 10:38:47;;;;;;;7.18;5.40;;;4.00;99.90;;;;;;5075944;28;20059;-70
2023/01/23 10:41:16;;;;;;;7.65;5.50;;;;;;;;;;5091852;28;20496;-71
2023/01/23 10:43:44;;;;;;;9.60;5.85;;;3.90;99.90;;;;;;5091735;28;20040;-73
2023/01/23 10:46:17;;;;;;;6.70;5.22;;;3.80;99.90;;;;;;5091924;28;20067;-72
2023/01/23 10:48:49;;;;;;;10.13;5.72;;;3.90;99.90;;;;;;5091848;28;20120;-71
2023/01/23 10:51:45;;;;;;;8.65;5.47;;;4.20;99.90;;;;;;5091277;28;20048;-74
2023/01/23 10:54:18;;;;;;;8.45;5.35;;;4.20;99.90;;;;;;5090621;28;20112;-74
2023/01/23 10:56:49;;;;;;;9.63;5.78;;;3.90;99.90;;;;;;5090773;28;20040;-71
2023/01/23 10:59:27;;;;;;;9.25;5.68;;;;;;;;;;5091267;28;20552;-68
2023/01/23 11:02:12;;;;;;;9.65;5.53;;;4.10;99.90;;;;;;5091210;28;20470;-73
2023/01/23 11:04:40;;;;;;;10.07;6.05;;;4.10;99.90;;;;;;5105687;28;20109;-73
2023/01/23 11:07:36;;;;;;;8.88;5.78;;;4.40;99.90;;;;;;5110436;28;20044;-71
2023/01/23 11:10:19;;;;;;;8.82;5.85;;;4.30;99.90;;;;;;5110424;28;20065;-72
2023/01/23 11:12:53;;;;;;;12.30;6.40;;;4.10;99.90;;;;;;5111865;28;20489;-72
2023/01/23 11:15:23;;;;;;;12.32;6.07;;;4.40;99.90;;;;;;5111972;28;20062;-74
2023/01/23 11:17:51;;;;;;;8.82;6.07;;;4.50;99.90;;;;;;5111846;28;20052;-71
2023/01/23 11:20:29;;;;;;;10.77;6.28;;;4.70;99.90;;;;;;5110475;28;20098;-71
2023/01/23 11:23:16;;;;;;;8.90;5.43;;;4.60;99.90;;;;;;5111437;28;20042;-70
2023/01/23 11:25:43;;;;;;;;;;;4.40;99.90;;;;;;5071753;28;20098;-69
2023/01/23 11:28:34;;;;;;;7.25;5.03;;;4.60;99.90;;;;;;5072660;28;19925;-72
2023/01/23 11:31:19;;;;;;;6.85;5.32;;;4.20;99.90;;;;;;5081815;28;20064;-70
2023/01/23 11:34:10;;;;;;;7.82;5.13;;;4.70;99.90;;;;;;5096449;28;20039;-71
2023/01/23 11:36:47;;;;;;;5.47;4.13;;;4.50;99.90;;;;;;5097903;28;20050;-71
2023/01/23 11:39:44;;;;;;;7.55;4.93;;;4.40;99.90;;;;;;5091488;28;20056;-73
2023/01/23 11:42:14;;;;;;;7.80;5.15;;;4.40;99.90;;;;;;5091490;28;20050;-71
2023/01/23 11:44:41;;;;;;;5.68;3.80;;;4.40;99.90;;;;;;5090285;28;20048;-71
2023/01/23 11:47:16;;;;;;;4.72;3.85;;;;;;;;;;5091372;28;20048;-71
2023/01/23 11:50:14;;;;;;;8.43;4.47;;;4.80;99.90;;;;;;5093805;28;20054;-71
2023/01/23 11:52:59;;;;;;;6.20;4.90;;;4.80;99.90;;;;;;5095173;28;20047;-71
2023/01/23 11:55:43;;;;;;;5.85;3.95;;;4.50;99.90;;;;;;5095294;28;20489;-72
2023/01/23 11:58:46;;;;;;;5.45;3.97;;;4.60;99.90;;;;;;5095227;28;20151;-71
2023/01/23 12:01:18;;;;;;;4.50;3.40;;;4.70;99.90;;;;;;5095024;28;20048;-71
2023/01/23 12:04:15;;;;;;;6.00;3.95;;;4.60;99.90;;;;;;5095148;28;20113;-71
2023/01/23 12:06:53;;;;;;;5.18;3.97;;;4.70;99.90;;;;;;5093959;28;20048;-71
2023/01/23 12:09:20;;;;;;;4.32;3.25;;;4.90;99.90;;;;;;5095011;28;20091;-70
2023/01/23 12:12:15;;;;;;;7.82;3.40;;;4.70;99.90;;;;;;5094897;28;20044;-71
2023/01/23 12:14:53;;;;;;;2.92;2.20;;;4.60;99.90;;;;;;5093531;28;20055;-71
2023/01/23 12:17:29;;;;;;;2.90;2.10;;;4.50;99.90;;;;;;5091881;28;20059;-71
2023/01/23 12:20:01;;;;;;;2.60;2.40;;;4.40;99.90;;;;;;5091860;28;20122;-71
2023/01/23 12:22:36;;;;;;;2.80;2.30;;;4.30;99.90;;;;;;5094624;28;20051;-71
2023/01/23 12:25:21;;;;;;;4.25;2.10;;;;;;;;;;5094930;28;20078;-73
2023/01/23 12:27:56;;;;;;;3.47;2.78;;;4.50;99.90;;;;;;5094215;28;20044;-71
2023/01/23 12:30:29;;;;;;;3.92;2.67;;;4.70;99.90;;;;;;5093276;28;20044;-71
2023/01/23 12:33:18;;;;;;;3.65;2.85;;;4.30;99.90;;;;;;5094004;28;20040;-71
2023/01/23 12:36:09;;;;;;;4.45;3.28;;;4.60;99.90;;;;;;5094078;28;20549;-71
2023/01/23 12:38:47;;;;;;;4.03;3.60;;;;;;;;;;5083650;28;20040;-72
2023/01/23 12:41:28;;;;;;;4.00;3.60;;;4.60;99.90;;;;;;5094205;28;20054;-71
2023/01/23 12:44:03;;;;;;;4.60;3.13;;;4.20;99.90;;;;;;5093896;28;20055;-71
2023/01/23 12:46:40;;;;;;;3.55;2.80;;;4.40;99.90;;;;;;5094126;28;20105;-72
2023/01/23 12:49:28;;;;;;;4.13;3.08;;;4.70;99.90;;;;;;5093511;28;20360;-72
2023/01/23 12:52:20;;;;;;;4.38;2.55;;;4.60;99.90;;;;;;5110167;28;20055;-73
2023/01/23 12:54:50;;;;;;;3.65;2.78;;;;;;;;;;5114247;28;20040;-71
2023/01/23 12:57:38;;;;;;;3.78;2.65;;;4.70;99.90;;;;;;5113885;28;20094;-71
2023/01/23 13:00:35;;;;;;;4.97;3.08;;;4.40;99.90;;;;;;5113681;28;20047;-72
2023/01/23 13:03:06;;;;;;;7.25;4.78;;;4.90;99.90;;;;;;5113847;28;20130;-72
2023/01/23 13:06:00;;;;;;;7.22;5.10;;;4.70;99.90;;;;;;5113753;28;20059;-70
2023/01/23 13:09:08;;;;;;;6.53;3.80;;;4.70;99.90;;;;;;5113427;28;20127;-70
2023/01/23 13:11:40;;;;;;;;;;;4.50;99.90;;;;;;5030665;28;20501;-72
2023/01/23 13:14:44;;;;;;;5.90;3.60;;;4.60;99.90;;;;;;5090664;28;19927;-72
2023/01/23 13:17:33;;;;;;;4.10;3.30;;;5.00;99.90;;;;;;5092676;28;20451;-72
2023/01/23 13:23:25;;;;;;;6.47;3.95;;;4.40;99.90;;;;;;5073016;28;20461;-72
2023/01/23 13:26:16;;;;;;;6.47;4.43;;;4.80;99.90;;;;;;5072489;28;20444;-71
2023/01/23 13:28:44;;;;;;;6.22;4.95;;;4.50;99.90;;;;;;5073232;28;20052;-72
2023/01/23 13:31:34;;;;;;;6.82;5.40;;;4.80;99.90;;;;;;5073100;28;20554;-73
2023/01/23 13:34:23;;;;;;;8.43;6.05;;;4.30;99.90;;;;;;5073164;28;20071;-72
2023/01/23 13:36:53;;;;;;;6.45;4.65;;;4.80;99.90;;;;;;5072876;28;20147;-70
2023/01/23 13:39:24;;;;;;;4.30;3.90;;;4.80;99.90;;;;;;5084074;28;20082;-72
2023/01/23 13:42:14;;;;;;;5.13;3.47;;;;;;;;;;5093134;28;20392;-70
2023/01/23 13:45:17;;;;;;;4.22;3.60;;;4.50;99.90;;;;;;5082077;28;20056;-70
2023/01/23 13:50:42;;;;;;;5.70;4.50;;;4.60;99.90;;;;;;5091114;28;20117;-72
2023/01/23 13:59:18;;;;;;;5.90;5.10;;;4.60;99.90;;;;;;5092406;28;20113;-72
2023/01/23 14:07:41;;;;;;;7.18;5.32;;;;;;;;;;5111536;28;20600;-70
2023/01/23 14:10:17;;;;;;;8.32;7.22;;;4.30;99.90;;;;;;5111085;28;20134;-70
2023/01/23 14:12:42;;;;;;;7.25;5.40;;;4.60;99.90;;;;;;5104067;28;20048;-71